Time;durP1;ratioP1;P1;durP2;ratioP2;P2;SDS_P1;SDS_P2;PMS_P1;PMS_P2;Temp;Humidity;BMP_temperature;BMP_pressure;BME280_temperature;BME280_humidity;BME280_pressure;Samples;Min_cycle;Max_cycle;Signal;HPM_P1;HPM_P2
2022/11/13 00:01:41;;;;;;;27.83;18.05;;;11.70;99.90;;;;;;5002865;28;20038;-69
2022/11/13 00:04:06;;;;;;;25.40;18.83;;;11.70;99.90;;;;;;5001840;28;20144;-69
2022/11/13 00:06:32;;;;;;;29.25;19.05;;;11.60;99.90;;;;;;5001633;28;20556;-69
2022/11/13 00:08:58;;;;;;;24.10;18.35;;;11.60;99.90;;;;;;5001507;28;20440;-69
2022/11/13 00:11:23;;;;;;;23.30;18.50;;;11.70;99.90;;;;;;5003544;28;20108;-69
2022/11/13 00:13:49;;;;;;;27.27;19.13;;;11.70;99.90;;;;;;5002317;28;20042;-69
2022/11/13 00:16:18;;;;;;;25.30;18.75;;;11.70;99.90;;;;;;5000198;28;20036;-69
2022/11/13 00:18:45;;;;;;;30.58;19.60;;;11.80;99.90;;;;;;5004712;28;20060;-69
2022/11/13 00:21:16;;;;;;;26.60;18.50;;;11.80;99.90;;;;;;5004972;28;20034;-69
2022/11/13 00:23:42;;;;;;;27.00;19.25;;;11.70;99.90;;;;;;5001633;28;20026;-69
2022/11/13 00:26:18;;;;;;;26.10;19.70;;;11.80;99.90;;;;;;5004059;28;20040;-69
2022/11/13 00:28:44;;;;;;;26.60;19.77;;;11.80;99.90;;;;;;5003349;28;20030;-69
2022/11/13 00:31:13;;;;;;;24.73;19.00;;;11.80;99.90;;;;;;5000316;28;20171;-69
2022/11/13 00:33:38;;;;;;;25.10;19.65;;;11.80;99.90;;;;;;5001236;28;20040;-69
2022/11/13 00:36:13;;;;;;;27.73;18.65;;;11.80;99.90;;;;;;5002014;28;20018;-69
2022/11/13 00:38:39;;;;;;;26.48;19.35;;;11.80;99.90;;;;;;5003727;28;20031;-69
2022/11/13 00:41:05;;;;;;;25.77;19.52;;;11.80;99.90;;;;;;5004556;28;20044;-69
2022/11/13 00:43:30;;;;;;;24.20;18.13;;;11.80;99.90;;;;;;5001051;28;20061;-69
2022/11/13 00:45:56;;;;;;;27.48;20.55;;;11.80;99.90;;;;;;5002781;28;20057;-69
2022/11/13 00:48:22;;;;;;;26.80;19.13;;;11.80;99.90;;;;;;5002326;28;20026;-69
2022/11/13 00:50:48;;;;;;;27.10;17.23;;;11.90;99.90;;;;;;5001301;28;20516;-69
2022/11/13 00:53:14;;;;;;;25.42;18.05;;;11.90;99.90;;;;;;5004618;28;20033;-69
2022/11/13 00:55:44;;;;;;;23.17;16.48;;;11.90;99.90;;;;;;5000164;28;20022;-69
2022/11/13 00:58:11;;;;;;;22.77;16.92;;;11.90;99.90;;;;;;5003072;28;20703;-69
2022/11/13 01:00:38;;;;;;;22.95;16.83;;;11.90;99.90;;;;;;5002423;28;20124;-69
2022/11/13 01:03:03;;;;;;;19.27;15.63;;;11.90;99.90;;;;;;5000650;28;20633;-68
2022/11/13 01:05:29;;;;;;;22.13;15.85;;;12.00;99.90;;;;;;5001404;28;20030;-69
2022/11/13 01:07:55;;;;;;;25.42;17.20;;;12.00;99.90;;;;;;5004479;28;20030;-68
2022/11/13 01:10:21;;;;;;;23.67;17.75;;;12.00;99.90;;;;;;5004163;28;20095;-68
2022/11/13 01:12:47;;;;;;;21.73;16.23;;;12.00;99.90;;;;;;5003008;28;20030;-68
2022/11/13 01:15:13;;;;;;;23.83;17.05;;;12.00;99.90;;;;;;5005271;28;20496;-69
2022/11/13 01:17:38;;;;;;;21.17;15.95;;;12.00;99.90;;;;;;5004556;28;20037;-68
2022/11/13 01:20:05;;;;;;;20.15;14.30;;;12.00;99.90;;;;;;5005257;28;20037;-69
2022/11/13 01:22:31;;;;;;;22.23;15.88;;;12.00;99.90;;;;;;5004380;28;20050;-69
2022/11/13 01:24:56;;;;;;;24.10;15.57;;;12.00;99.90;;;;;;5004813;28;20141;-69
2022/11/13 01:27:22;;;;;;;20.38;15.93;;;12.00;99.90;;;;;;5004222;28;20078;-68
2022/11/13 01:29:48;;;;;;;23.20;15.93;;;12.00;99.90;;;;;;5005131;28;20037;-68
2022/11/13 01:32:15;;;;;;;25.35;18.35;;;12.00;99.90;;;;;;5002636;28;20030;-68
2022/11/13 01:34:40;;;;;;;22.13;18.08;;;12.10;99.90;;;;;;5006626;28;20093;-68
2022/11/13 01:37:06;;;;;;;23.80;18.13;;;12.10;99.90;;;;;;5006013;28;20022;-68
2022/11/13 01:39:31;;;;;;;27.27;19.25;;;12.10;99.90;;;;;;5004836;28;21032;-68
2022/11/13 01:41:57;;;;;;;25.52;17.45;;;12.10;99.90;;;;;;5004902;28;20685;-68
2022/11/13 01:44:24;;;;;;;23.08;17.67;;;12.10;99.90;;;;;;5004428;28;20583;-69
2022/11/13 01:46:52;;;;;;;25.67;18.15;;;12.10;99.90;;;;;;5004163;28;20018;-68
2022/11/13 01:49:35;;;;;;;22.60;16.10;;;12.10;99.90;;;;;;5005417;28;20453;-68
2022/11/13 01:52:05;;;;;;;23.88;16.23;;;12.10;99.90;;;;;;5003257;28;20041;-69
2022/11/13 01:54:38;;;;;;;25.23;16.35;;;12.10;99.90;;;;;;5004546;28;20042;-69
2022/11/13 01:57:05;;;;;;;18.92;14.50;;;12.20;99.90;;;;;;5006364;28;20145;-69
2022/11/13 01:59:53;;;;;;;21.95;16.65;;;12.10;99.90;;;;;;5005652;28;20125;-70
2022/11/13 02:02:19;;;;;;;21.00;15.50;;;12.20;99.90;;;;;;5007331;28;20038;-69
2022/11/13 02:04:45;;;;;;;21.88;16.40;;;12.20;99.90;;;;;;5003699;28;20033;-69
2022/11/13 02:07:14;;;;;;;23.05;16.52;;;12.10;99.90;;;;;;5005012;28;20030;-69
2022/11/13 02:09:42;;;;;;;22.65;15.55;;;12.10;99.90;;;;;;5005732;28;20041;-69
2022/11/13 02:12:12;;;;;;;22.30;16.63;;;12.20;99.90;;;;;;5008553;28;20037;-69
2022/11/13 02:14:41;;;;;;;19.65;15.35;;;12.20;99.90;;;;;;5003842;28;20030;-69
2022/11/13 02:17:11;;;;;;;20.73;15.80;;;12.20;99.90;;;;;;5003723;28;20022;-70
2022/11/13 02:19:42;;;;;;;22.00;15.63;;;12.20;99.90;;;;;;5004951;28;20044;-69
2022/11/13 02:22:29;;;;;;;20.40;15.43;;;12.20;99.90;;;;;;5005250;28;20029;-69
2022/11/13 02:24:59;;;;;;;19.30;15.40;;;12.20;99.90;;;;;;5003830;28;20036;-69
2022/11/13 02:27:45;;;;;;;25.25;18.80;;;12.30;99.90;;;;;;5005488;28;20381;-69
2022/11/13 02:30:18;;;;;;;21.23;16.90;;;12.20;99.90;;;;;;5006449;28;20037;-69
2022/11/13 02:32:45;;;;;;;22.55;16.50;;;12.20;99.90;;;;;;5005519;28;20026;-69
2022/11/13 02:35:14;;;;;;;22.45;16.17;;;12.30;99.90;;;;;;5005488;28;20057;-69
2022/11/13 02:37:40;;;;;;;19.25;15.93;;;12.20;99.90;;;;;;5006487;28;20029;-68
2022/11/13 02:40:07;;;;;;;22.45;16.98;;;12.30;99.90;;;;;;5006072;28;20042;-69
2022/11/13 02:42:33;;;;;;;18.30;15.18;;;12.20;99.90;;;;;;5005159;28;20386;-69
2022/11/13 02:44:59;;;;;;;18.95;15.60;;;12.30;99.90;;;;;;5001063;28;20049;-69
2022/11/13 02:47:24;;;;;;;21.02;15.80;;;12.30;99.90;;;;;;5005103;28;20076;-69
2022/11/13 02:49:50;;;;;;;21.13;15.73;;;12.30;99.90;;;;;;5005040;28;20976;-69
2022/11/13 02:52:15;;;;;;;19.40;15.55;;;12.30;99.90;;;;;;5004593;28;20052;-69
2022/11/13 02:54:41;;;;;;;17.52;14.82;;;12.30;99.90;;;;;;5002078;28;20030;-69
2022/11/13 02:57:08;;;;;;;22.98;16.80;;;12.30;99.90;;;;;;5003622;28;20117;-69
2022/11/13 02:59:34;;;;;;;25.30;16.25;;;12.30;99.90;;;;;;5003740;28;20505;-69
2022/11/13 03:01:59;;;;;;;21.35;16.67;;;12.20;99.90;;;;;;5004873;28;20059;-69
2022/11/13 03:04:25;;;;;;;20.67;15.00;;;12.30;99.90;;;;;;5004691;28;20042;-69
2022/11/13 03:06:50;;;;;;;20.15;16.08;;;12.30;99.90;;;;;;5002851;28;20872;-69
2022/11/13 03:09:16;;;;;;;16.83;14.20;;;12.30;99.90;;;;;;5006581;28;20121;-68
2022/11/13 03:11:43;;;;;;;21.60;14.90;;;12.30;99.90;;;;;;5002928;28;20026;-69
2022/11/13 03:14:09;;;;;;;16.40;14.48;;;12.30;99.90;;;;;;5004889;28;20107;-69
2022/11/13 03:16:35;;;;;;;17.77;15.02;;;12.30;99.90;;;;;;5002816;28;21329;-68
2022/11/13 03:19:01;;;;;;;20.23;15.73;;;12.30;99.90;;;;;;5012145;28;20458;-68
2022/11/13 03:21:26;;;;;;;15.82;13.55;;;12.40;99.90;;;;;;5008785;28;20477;-68
2022/11/13 03:23:53;;;;;;;19.40;14.52;;;12.30;99.90;;;;;;5004115;28;20061;-68
2022/11/13 03:26:19;;;;;;;16.33;12.27;;;12.30;99.90;;;;;;5003041;28;20052;-68
2022/11/13 03:28:45;;;;;;;13.75;11.55;;;12.30;99.90;;;;;;5002980;28;20033;-68
2022/11/13 03:31:11;;;;;;;16.23;12.43;;;12.30;99.90;;;;;;5002951;28;20157;-68
2022/11/13 03:33:37;;;;;;;17.05;12.48;;;12.30;99.90;;;;;;5003557;28;20509;-68
2022/11/13 03:36:03;;;;;;;13.48;11.30;;;12.30;99.90;;;;;;5002630;28;20045;-68
2022/11/13 03:38:29;;;;;;;17.83;12.57;;;12.30;99.90;;;;;;5004032;28;20484;-68
2022/11/13 03:40:55;;;;;;;16.42;11.98;;;12.30;99.90;;;;;;5002985;28;20164;-68
2022/11/13 03:43:20;;;;;;;14.63;11.95;;;12.30;99.90;;;;;;5003333;28;20144;-68
2022/11/13 03:45:47;;;;;;;14.70;11.30;;;12.30;99.90;;;;;;5001261;28;20125;-69
2022/11/13 03:48:14;;;;;;;12.15;10.35;;;12.30;99.90;;;;;;5002172;28;20022;-69
2022/11/13 03:50:43;;;;;;;13.45;10.18;;;12.30;99.90;;;;;;5001433;28;20121;-69
2022/11/13 03:53:09;;;;;;;13.38;9.68;;;12.30;99.90;;;;;;5003854;28;20084;-68
2022/11/13 03:55:34;;;;;;;14.82;10.30;;;12.30;99.90;;;;;;5004216;28;20026;-68
2022/11/13 03:58:00;;;;;;;12.95;9.55;;;12.40;99.90;;;;;;5004524;28;20069;-68
2022/11/13 04:00:26;;;;;;;17.02;9.48;;;12.30;99.90;;;;;;5003430;28;20050;-68
2022/11/13 04:02:52;;;;;;;10.65;9.02;;;12.30;99.90;;;;;;5004176;28;20036;-68
2022/11/13 04:05:17;;;;;;;12.75;10.38;;;12.30;99.90;;;;;;5003076;28;20030;-68
2022/11/13 04:07:43;;;;;;;13.48;9.80;;;12.30;99.90;;;;;;5001350;28;20141;-69
2022/11/13 04:10:09;;;;;;;13.85;9.73;;;12.30;99.90;;;;;;5006143;28;20033;-69
2022/11/13 04:12:34;;;;;;;13.38;10.60;;;12.30;99.90;;;;;;5004060;28;20025;-70
2022/11/13 04:15:00;;;;;;;12.48;9.63;;;12.30;99.90;;;;;;5002345;28;20058;-70
2022/11/13 04:17:26;;;;;;;14.23;10.63;;;12.30;99.90;;;;;;5001047;28;20034;-70
2022/11/13 04:19:53;;;;;;;12.20;9.25;;;12.20;99.90;;;;;;5000293;28;20477;-69
2022/11/13 04:22:19;;;;;;;10.88;9.48;;;12.20;99.90;;;;;;5001207;28;20053;-69
2022/11/13 04:24:44;;;;;;;12.90;10.55;;;12.20;99.90;;;;;;5004484;28;20060;-69
2022/11/13 04:27:10;;;;;;;13.38;10.32;;;12.20;99.90;;;;;;5002983;28;20030;-70
2022/11/13 04:29:36;;;;;;;14.07;10.27;;;12.20;99.90;;;;;;5001765;28;20112;-69
2022/11/13 04:32:02;;;;;;;15.88;10.43;;;12.20;99.90;;;;;;5002945;28;20088;-69
2022/11/13 04:34:28;;;;;;;12.98;9.55;;;12.20;99.90;;;;;;4999801;28;20033;-70
2022/11/13 04:36:54;;;;;;;13.25;10.18;;;12.20;99.90;;;;;;5003164;28;20504;-70
2022/11/13 04:39:19;;;;;;;14.63;9.57;;;12.20;99.90;;;;;;5003139;28;20034;-70
2022/11/13 04:44:29;;;;;;;11.70;10.07;;;12.20;99.90;;;;;;5001226;28;20497;-70
2022/11/13 04:46:55;;;;;;;13.57;10.60;;;12.20;99.90;;;;;;5000490;28;20289;-70
2022/11/13 04:49:21;;;;;;;13.38;9.90;;;12.20;99.90;;;;;;5002016;28;20054;-70
2022/11/13 04:51:46;;;;;;;14.73;9.98;;;12.20;99.90;;;;;;5001103;28;20026;-69
2022/11/13 04:54:12;;;;;;;14.57;10.52;;;12.20;99.90;;;;;;5002627;28;20030;-70
2022/11/13 04:56:38;;;;;;;13.35;9.90;;;12.20;99.90;;;;;;5002580;28;20064;-69
2022/11/13 04:59:04;;;;;;;12.27;10.27;;;12.20;99.90;;;;;;5002342;28;20140;-70
2022/11/13 05:01:29;;;;;;;13.48;10.23;;;12.30;99.90;;;;;;5003489;28;20583;-69
2022/11/13 05:03:56;;;;;;;14.60;10.85;;;12.20;99.90;;;;;;5002925;28;20137;-69
2022/11/13 05:06:22;;;;;;;15.00;10.93;;;12.20;99.90;;;;;;5000990;28;20381;-69
2022/11/13 05:08:48;;;;;;;15.75;10.35;;;12.20;99.90;;;;;;5000964;28;20063;-69
2022/11/13 05:11:14;;;;;;;13.38;10.80;;;12.20;99.90;;;;;;5002894;28;20459;-70
2022/11/13 05:13:41;;;;;;;13.00;9.85;;;12.20;99.90;;;;;;5005406;28;20109;-70
2022/11/13 05:16:10;;;;;;;16.48;10.95;;;12.20;99.90;;;;;;5003943;28;21680;-70
2022/11/13 05:18:37;;;;;;;13.75;10.40;;;12.30;99.90;;;;;;5001081;28;20033;-69
2022/11/13 05:21:04;;;;;;;14.43;9.80;;;12.20;99.90;;;;;;5002253;28;20607;-69
2022/11/13 05:23:30;;;;;;;13.60;9.70;;;12.20;99.90;;;;;;5002649;28;20460;-70
2022/11/13 05:26:11;;;;;;;11.32;9.82;;;12.20;99.90;;;;;;5001970;28;20026;-70
2022/11/13 05:28:37;;;;;;;11.75;9.40;;;12.20;99.90;;;;;;5001281;28;20448;-70
2022/11/13 05:31:05;;;;;;;12.68;9.63;;;12.20;99.90;;;;;;5001902;28;20497;-70
2022/11/13 05:33:30;;;;;;;16.15;11.02;;;12.20;99.90;;;;;;4999215;28;20030;-70
2022/11/13 05:36:08;;;;;;;12.27;9.40;;;12.20;99.90;;;;;;5000878;28;21632;-70
2022/11/13 05:38:35;;;;;;;12.90;10.35;;;12.20;99.90;;;;;;5001100;28;20036;-70
2022/11/13 05:41:12;;;;;;;11.73;9.57;;;12.20;99.90;;;;;;5002750;28;20420;-70
2022/11/13 05:43:39;;;;;;;16.55;10.48;;;12.20;99.90;;;;;;5000008;28;20144;-70
2022/11/13 05:46:13;;;;;;;13.77;10.35;;;12.20;99.90;;;;;;5001097;28;20584;-70
2022/11/13 05:48:39;;;;;;;11.18;9.95;;;12.20;99.90;;;;;;5001346;28;20041;-70
2022/11/13 05:51:09;;;;;;;11.95;9.85;;;12.20;99.90;;;;;;5001716;28;20167;-69
2022/11/13 05:53:36;;;;;;;16.05;10.18;;;12.20;99.90;;;;;;5001913;28;20053;-69
2022/11/13 05:56:17;;;;;;;12.38;10.20;;;12.20;99.90;;;;;;5003279;28;20120;-69
2022/11/13 05:58:43;;;;;;;13.05;9.70;;;12.20;99.90;;;;;;5002652;28;20413;-69
2022/11/13 06:01:11;;;;;;;14.10;10.90;;;12.20;99.90;;;;;;5002477;28;20040;-68
2022/11/13 06:03:37;;;;;;;13.25;10.38;;;12.20;99.90;;;;;;5005172;28;20025;-68
2022/11/13 06:06:04;;;;;;;12.77;10.18;;;12.20;99.90;;;;;;5006766;28;20087;-68
2022/11/13 06:08:31;;;;;;;13.80;11.27;;;12.20;99.90;;;;;;5007605;28;20022;-68
2022/11/13 06:11:07;;;;;;;15.05;10.68;;;12.20;99.90;;;;;;5008456;28;20044;-68
2022/11/13 06:13:33;;;;;;;14.93;11.75;;;12.20;99.90;;;;;;5005267;28;20100;-68
2022/11/13 06:16:14;;;;;;;13.82;11.35;;;12.20;99.90;;;;;;5007130;28;20036;-68
2022/11/13 06:18:43;;;;;;;19.98;13.20;;;12.20;99.90;;;;;;5003343;28;20069;-68
2022/11/13 06:21:12;;;;;;;18.88;13.65;;;12.10;99.90;;;;;;5006573;28;20037;-69
2022/11/13 06:23:39;;;;;;;18.58;14.25;;;12.10;99.90;;;;;;5004280;28;20030;-68
2022/11/13 06:26:17;;;;;;;18.70;14.80;;;12.10;99.90;;;;;;5003435;28;20516;-69
2022/11/13 06:28:42;;;;;;;20.08;15.30;;;12.00;99.90;;;;;;5003546;28;20108;-68
2022/11/13 06:31:10;;;;;;;18.70;14.95;;;12.00;99.90;;;;;;5005277;28;20542;-69
2022/11/13 06:33:37;;;;;;;20.40;15.27;;;12.00;99.90;;;;;;5004641;28;20036;-69
2022/11/13 06:36:09;;;;;;;21.02;15.95;;;12.00;99.90;;;;;;5004664;28;20056;-69
2022/11/13 06:38:36;;;;;;;18.08;15.48;;;12.00;99.90;;;;;;5004828;28;20033;-69
2022/11/13 06:41:03;;;;;;;17.42;15.18;;;12.00;99.90;;;;;;5006933;28;20030;-70
2022/11/13 06:43:29;;;;;;;20.42;16.15;;;12.00;99.90;;;;;;5002598;28;20033;-70
2022/11/13 06:49:25;;;;;;;19.20;16.10;;;12.00;99.90;;;;;;5005605;28;20555;-69
2022/11/13 06:51:51;;;;;;;20.05;16.02;;;12.00;99.90;;;;;;5006728;28;20040;-69
2022/11/13 06:54:17;;;;;;;19.27;14.48;;;12.00;99.90;;;;;;5002309;28;20038;-69
2022/11/13 06:56:44;;;;;;;18.85;14.57;;;12.00;99.90;;;;;;5003821;28;20467;-71
2022/11/13 06:59:10;;;;;;;18.60;14.65;;;12.00;99.90;;;;;;5003583;28;20037;-70
2022/11/13 07:01:36;;;;;;;18.00;14.00;;;12.00;99.90;;;;;;5002461;28;20080;-70
2022/11/13 07:04:03;;;;;;;17.23;14.88;;;12.00;99.90;;;;;;5005913;28;20034;-69
2022/11/13 07:06:29;;;;;;;21.38;15.25;;;12.10;99.90;;;;;;5003137;28;20121;-69
2022/11/13 07:08:55;;;;;;;18.98;14.48;;;12.00;99.90;;;;;;5003655;28;20113;-69
2022/11/13 07:11:22;;;;;;;17.27;14.65;;;12.00;99.90;;;;;;5004086;28;20100;-69
2022/11/13 07:13:48;;;;;;;18.50;13.00;;;12.00;99.90;;;;;;5004737;28;20026;-68
2022/11/13 07:16:15;;;;;;;20.08;14.00;;;12.00;99.90;;;;;;5007853;28;20048;-70
2022/11/13 07:18:41;;;;;;;16.98;13.45;;;12.00;99.90;;;;;;5002764;28;20056;-69
2022/11/13 07:21:09;;;;;;;17.02;12.38;;;12.00;99.90;;;;;;5005936;28;20037;-70
2022/11/13 07:23:41;;;;;;;16.05;12.45;;;12.00;99.90;;;;;;5003168;28;20030;-69
2022/11/13 07:26:10;;;;;;;19.10;12.70;;;12.00;99.90;;;;;;5004297;28;20026;-69
2022/11/13 07:28:36;;;;;;;15.75;11.35;;;12.00;99.90;;;;;;5001270;28;20018;-70
2022/11/13 07:31:03;;;;;;;17.77;12.45;;;11.90;99.90;;;;;;5004692;28;20038;-69
2022/11/13 07:33:28;;;;;;;16.00;11.95;;;12.00;99.90;;;;;;5005503;28;20038;-70
2022/11/13 07:35:55;;;;;;;17.90;12.27;;;12.00;99.90;;;;;;5006012;28;20592;-69
2022/11/13 07:38:21;;;;;;;16.33;11.50;;;12.00;99.90;;;;;;5003472;28;20038;-69
2022/11/13 07:40:47;;;;;;;16.10;12.45;;;12.00;99.90;;;;;;5004057;28;20037;-69
2022/11/13 07:43:12;;;;;;;17.42;11.60;;;12.10;99.90;;;;;;5004707;28;20033;-70
2022/11/13 07:45:38;;;;;;;16.70;12.45;;;12.10;99.90;;;;;;5001981;28;20034;-69
2022/11/13 07:48:04;;;;;;;16.05;12.13;;;12.10;99.90;;;;;;5002830;28;20038;-70
2022/11/13 07:50:34;;;;;;;16.38;12.13;;;12.10;99.90;;;;;;5001262;28;20358;-70
2022/11/13 07:53:02;;;;;;;15.55;11.55;;;12.10;99.90;;;;;;5002849;28;20039;-70
2022/11/13 07:55:29;;;;;;;17.80;12.90;;;12.20;99.90;;;;;;5002401;28;20568;-70
2022/11/13 07:57:59;;;;;;;16.33;12.32;;;12.20;99.90;;;;;;5003238;28;20084;-69
2022/11/13 08:00:25;;;;;;;17.92;13.38;;;12.20;99.90;;;;;;5002558;28;20624;-75
2022/11/13 08:02:51;;;;;;;16.75;12.80;;;12.20;99.90;;;;;;5005269;28;20044;-69
2022/11/13 08:05:17;;;;;;;21.77;13.80;;;12.20;99.90;;;;;;5008266;28;20029;-75
2022/11/13 08:07:47;;;;;;;16.77;12.75;;;12.10;99.90;;;;;;5008221;28;20324;-76
2022/11/13 08:10:13;;;;;;;18.98;12.80;;;12.20;99.90;;;;;;5004849;28;20029;-73
2022/11/13 08:12:39;;;;;;;17.15;12.52;;;12.20;99.90;;;;;;5010245;28;20366;-75
2022/11/13 08:15:05;;;;;;;18.33;14.07;;;12.20;99.90;;;;;;5003958;28;20041;-69
2022/11/13 08:17:30;;;;;;;21.38;13.50;;;12.20;99.90;;;;;;5003860;28;20035;-69
2022/11/13 08:19:56;;;;;;;19.40;14.02;;;12.30;99.90;;;;;;5004455;28;20045;-69
2022/11/13 08:22:22;;;;;;;18.45;14.48;;;12.30;99.90;;;;;;5004965;28;20034;-69
2022/11/13 08:24:48;;;;;;;18.65;14.32;;;12.30;99.90;;;;;;5002710;28;20022;-69
2022/11/13 08:27:13;;;;;;;21.13;14.32;;;12.30;99.90;;;;;;4999158;28;20027;-68
2022/11/13 08:29:39;;;;;;;22.23;13.32;;;12.20;99.90;;;;;;5002305;28;20025;-68
2022/11/13 08:32:05;;;;;;;19.10;14.52;;;12.30;99.90;;;;;;5006040;28;20030;-69
2022/11/13 08:34:30;;;;;;;22.73;14.73;;;12.30;99.90;;;;;;5003568;28;20026;-69
2022/11/13 08:36:56;;;;;;;19.17;14.80;;;12.30;99.90;;;;;;5001673;28;20033;-69
2022/11/13 08:39:22;;;;;;;17.33;13.48;;;12.30;99.90;;;;;;5002089;28;20052;-69
2022/11/13 08:41:48;;;;;;;19.70;13.57;;;12.30;99.90;;;;;;5002638;28;20025;-69
2022/11/13 08:44:14;;;;;;;19.33;13.98;;;12.30;99.90;;;;;;5001686;28;20046;-69
2022/11/13 08:46:40;;;;;;;18.38;13.15;;;12.30;99.90;;;;;;4999980;28;20040;-69
2022/11/13 08:49:07;;;;;;;22.40;14.55;;;12.30;99.90;;;;;;5000426;28;20420;-69
2022/11/13 08:51:32;;;;;;;23.38;14.15;;;12.30;99.90;;;;;;5003329;28;20437;-69
2022/11/13 08:53:58;;;;;;;19.50;13.73;;;12.30;99.90;;;;;;4999669;28;20087;-69
2022/11/13 08:56:25;;;;;;;19.58;14.40;;;12.30;99.90;;;;;;4999564;28;20887;-69
2022/11/13 08:58:51;;;;;;;19.17;13.25;;;12.30;99.90;;;;;;5000753;28;20167;-69
2022/11/13 09:01:16;;;;;;;17.15;13.98;;;12.40;99.90;;;;;;4998644;28;20125;-70
2022/11/13 09:03:42;;;;;;;22.83;14.05;;;12.40;99.90;;;;;;5000864;28;20018;-69
2022/11/13 09:06:08;;;;;;;18.70;14.05;;;12.40;99.90;;;;;;5002278;28;20084;-69
2022/11/13 09:08:34;;;;;;;19.38;14.13;;;12.40;99.90;;;;;;5001597;28;20050;-69
2022/11/13 09:11:04;;;;;;;18.98;14.05;;;12.40;99.90;;;;;;5002148;28;20069;-69
2022/11/13 09:13:30;;;;;;;20.02;14.25;;;12.50;99.90;;;;;;5000081;28;20026;-69
2022/11/13 09:16:00;;;;;;;19.48;13.70;;;12.50;99.90;;;;;;5004450;28;20026;-69
2022/11/13 09:18:27;;;;;;;18.67;13.07;;;12.50;99.90;;;;;;5003251;28;20030;-69
2022/11/13 09:20:59;;;;;;;20.10;13.93;;;12.50;99.90;;;;;;4998786;28;20045;-69
2022/11/13 09:23:25;;;;;;;21.55;15.15;;;12.50;99.90;;;;;;5001416;28;20034;-69
2022/11/13 09:25:51;;;;;;;19.58;13.50;;;12.50;99.90;;;;;;5016202;28;20370;-69
2022/11/13 09:28:17;;;;;;;17.77;13.45;;;12.50;99.90;;;;;;5002355;28;20025;-69
2022/11/13 09:30:44;;;;;;;15.93;12.18;;;12.50;99.90;;;;;;5000860;28;20069;-71
2022/11/13 09:33:14;;;;;;;17.60;13.40;;;12.50;99.90;;;;;;5000016;28;20026;-69
2022/11/13 09:35:41;;;;;;;16.65;12.10;;;12.60;99.90;;;;;;5004902;28;20033;-70
2022/11/13 09:38:13;;;;;;;17.38;12.85;;;12.60;99.90;;;;;;5006052;28;20489;-69
2022/11/13 09:40:49;;;;;;;15.98;11.73;;;12.60;99.90;;;;;;5003458;28;20425;-69
2022/11/13 09:43:24;;;;;;;17.40;12.45;;;12.60;99.90;;;;;;5005424;28;20137;-69
2022/11/13 09:45:54;;;;;;;;;;;12.70;99.90;;;;;;5004878;28;20134;-68
2022/11/13 09:48:20;;;;;;;15.25;11.05;;;12.70;99.90;;;;;;5003949;28;19912;-69
2022/11/13 09:50:46;;;;;;;16.52;13.95;;;12.60;99.90;;;;;;5005033;28;20545;-69
2022/11/13 09:53:13;;;;;;;17.20;12.82;;;12.60;99.90;;;;;;5004008;28;20118;-69
2022/11/13 09:55:47;;;;;;;16.75;11.50;;;12.60;99.90;;;;;;5003370;28;20039;-68
2022/11/13 09:58:30;;;;;;;18.27;14.20;;;12.60;99.90;;;;;;5004109;28;20393;-68
2022/11/13 10:00:59;;;;;;;18.75;14.63;;;12.70;99.90;;;;;;5004329;28;20049;-68
2022/11/13 10:03:40;;;;;;;17.73;12.65;;;12.70;99.90;;;;;;5006530;28;21414;-69
2022/11/13 10:06:36;;;;;;;15.25;11.27;;;12.70;99.90;;;;;;5001421;28;20201;-68
2022/11/13 10:09:22;;;;;;;16.63;10.38;;;12.70;99.90;;;;;;5003269;28;22392;-68
2022/11/13 10:12:02;;;;;;;15.48;10.38;;;12.80;99.90;;;;;;5008074;28;20033;-68
2022/11/13 10:14:42;;;;;;;12.80;10.52;;;12.90;99.90;;;;;;5004069;28;20905;-69
2022/11/13 10:17:14;;;;;;;13.57;9.95;;;12.90;99.90;;;;;;5004874;28;20030;-68
2022/11/13 10:20:00;;;;;;;12.98;10.15;;;12.90;99.90;;;;;;5003419;28;20674;-70
2022/11/13 10:22:34;;;;;;;11.07;9.57;;;13.00;99.90;;;;;;5006112;28;20038;-68
2022/11/13 10:25:09;;;;;;;13.40;9.68;;;13.00;99.90;;;;;;5003092;28;20903;-69
2022/11/13 10:27:35;;;;;;;;;;;13.10;99.90;;;;;;5003660;28;20902;-68
2022/11/13 10:30:02;;;;;;;13.82;9.18;;;13.00;99.90;;;;;;5006307;28;19940;-68
2022/11/13 10:32:31;;;;;;;11.77;9.52;;;13.00;99.90;;;;;;5003279;28;20026;-68
2022/11/13 10:35:03;;;;;;;12.77;9.88;;;13.00;99.90;;;;;;5004663;28;20022;-68
2022/11/13 10:38:03;;;;;;;14.70;10.43;;;13.10;99.90;;;;;;5003717;28;20030;-68
2022/11/13 10:40:38;;;;;;;14.43;10.70;;;13.10;99.80;;;;;;5003366;28;20041;-69
2022/11/13 10:43:05;;;;;;;13.63;10.60;;;13.10;99.70;;;;;;5004366;28;20083;-68
2022/11/13 10:45:31;;;;;;;13.90;9.48;;;13.10;99.60;;;;;;5003075;28;22618;-69
2022/11/13 10:47:58;;;;;;;14.10;10.20;;;13.10;99.60;;;;;;5003449;28;20112;-68
2022/11/13 10:50:27;;;;;;;13.68;10.13;;;13.10;99.60;;;;;;5003285;28;20038;-69
2022/11/13 10:52:54;;;;;;;12.60;10.23;;;13.10;99.50;;;;;;5006351;28;20059;-69
2022/11/13 10:55:21;;;;;;;15.93;11.07;;;13.10;99.40;;;;;;5004447;28;20642;-69
2022/11/13 10:58:01;;;;;;;14.00;10.75;;;13.20;99.40;;;;;;5005578;28;20034;-69
2022/11/13 11:00:37;;;;;;;13.18;10.98;;;13.10;99.30;;;;;;5006669;28;20488;-69
2022/11/13 11:03:06;;;;;;;17.02;11.13;;;13.10;99.20;;;;;;5006251;28;20393;-68
2022/11/13 11:05:32;;;;;;;14.10;11.35;;;13.10;99.20;;;;;;5004829;28;20497;-70
2022/11/13 11:07:58;;;;;;;18.58;11.80;;;13.10;99.10;;;;;;5002378;28;20185;-69
2022/11/13 11:12:14;;;;;;;13.00;9.60;;;13.10;99.10;;;;;;5002335;28;20040;-68
2022/11/13 11:13:23;;;;;;;12.30;10.20;;;13.10;99.10;;;;;;5004910;28;20041;-69
2022/11/13 11:15:55;;;;;;;13.30;9.73;;;13.20;99.10;;;;;;4999538;28;20044;-69
2022/11/13 11:18:46;;;;;;;12.80;9.73;;;13.20;99.10;;;;;;5000408;28;20127;-69
2022/11/13 11:21:18;;;;;;;10.85;8.30;;;13.30;99.10;;;;;;4999886;28;20050;-69
2022/11/13 11:23:58;;;;;;;12.25;8.95;;;13.30;98.90;;;;;;4999378;28;20485;-69
2022/11/13 11:26:38;;;;;;;11.57;8.80;;;13.40;98.90;;;;;;4999770;28;20041;-69
2022/11/13 11:29:32;;;;;;;11.30;8.70;;;13.40;98.70;;;;;;4999233;28;20030;-69
2022/11/13 11:32:05;;;;;;;11.70;9.10;;;13.50;98.70;;;;;;5000159;28;20049;-69
2022/11/13 11:34:34;;;;;;;11.38;8.38;;;13.40;98.60;;;;;;5000213;28;20038;-68
2022/11/13 11:37:12;;;;;;;15.52;10.18;;;13.50;98.80;;;;;;4998321;28;20033;-69
2022/11/13 11:40:08;;;;;;;11.35;9.65;;;13.60;98.50;;;;;;4999939;28;20040;-68
2022/11/13 11:42:46;;;;;;;16.33;10.90;;;13.60;98.40;;;;;;4999878;28;20061;-69
2022/11/13 11:45:12;;;;;;;15.18;10.95;;;13.60;98.20;;;;;;4998924;28;20050;-69
2022/11/13 11:47:38;;;;;;;14.57;11.45;;;13.60;98.20;;;;;;4999779;28;20034;-70
2022/11/13 11:50:11;;;;;;;19.70;11.50;;;13.60;98.10;;;;;;4999504;28;20358;-70
2022/11/13 11:52:46;;;;;;;15.23;11.45;;;13.60;98.10;;;;;;4998204;28;20223;-68
2022/11/13 11:55:36;;;;;;;13.20;11.23;;;13.70;98.10;;;;;;4999061;28;20515;-71
2022/11/13 11:58:23;;;;;;;16.30;11.30;;;13.70;97.80;;;;;;4999175;28;20121;-70
2022/11/13 12:00:53;;;;;;;11.85;10.23;;;13.60;97.80;;;;;;4999714;28;20080;-70
2022/11/13 12:03:54;;;;;;;14.00;11.43;;;13.50;97.80;;;;;;4999239;28;20072;-70
2022/11/13 12:06:32;;;;;;;15.65;10.88;;;13.50;97.80;;;;;;4997086;28;20038;-70
2022/11/13 12:09:23;;;;;;;17.05;10.80;;;13.40;97.80;;;;;;4996845;28;20064;-71
2022/11/13 12:12:25;;;;;;;12.32;10.48;;;13.40;97.80;;;;;;4998967;28;20034;-71
2022/11/13 12:15:02;;;;;;;15.57;10.55;;;13.30;97.90;;;;;;5003012;28;20069;-71
2022/11/13 12:17:54;;;;;;;13.60;10.70;;;13.30;98.00;;;;;;5000066;28;20048;-68
2022/11/13 12:20:26;;;;;;;16.40;11.07;;;13.30;97.90;;;;;;5002862;28;20038;-69
2022/11/13 12:22:58;;;;;;;13.52;11.73;;;13.30;97.90;;;;;;4999953;28;20037;-69
2022/11/13 12:25:27;;;;;;;16.52;12.13;;;13.30;97.80;;;;;;5000737;28;20109;-68
2022/11/13 12:28:09;;;;;;;15.05;12.18;;;13.30;97.80;;;;;;4998295;28;20489;-69
2022/11/13 12:30:46;;;;;;;16.83;12.18;;;13.30;98.00;;;;;;5001361;28;20021;-69
2022/11/13 12:33:53;;;;;;;16.30;12.00;;;13.20;97.80;;;;;;4999295;28;20056;-68
2022/11/13 12:36:21;;;;;;;15.70;12.38;;;13.10;97.80;;;;;;5001449;28;20072;-69
2022/11/13 12:39:04;;;;;;;13.95;12.02;;;13.10;97.80;;;;;;5000068;28;22028;-69
2022/11/13 12:41:50;;;;;;;16.05;12.65;;;13.10;97.80;;;;;;5001412;28;20046;-69
2022/11/13 12:44:26;;;;;;;16.48;12.15;;;13.10;97.80;;;;;;5001159;28;20061;-70
2022/11/13 12:46:54;;;;;;;18.88;12.90;;;13.10;97.80;;;;;;4999745;28;20044;-70